createdAt,value
2018-08-04T00:00:11.109Z,15.60
2018-08-04T00:02:40.564Z,14.70
2018-08-04T00:05:10.954Z,15.70
2018-08-04T00:07:40.564Z,14.60
2018-08-04T00:10:16.631Z,14.70
2018-08-04T00:12:47.485Z,15.30
2018-08-04T00:15:17.068Z,15.93
2018-08-04T00:17:47.328Z,15.53
2018-08-04T00:20:20.322Z,16.97
2018-08-04T00:22:49.717Z,16.93
2018-08-04T00:25:19.153Z,16.37
2018-08-04T00:27:49.204Z,16.63
2018-08-04T00:30:18.711Z,17.77
2018-08-04T00:32:48.184Z,15.73
2018-08-04T00:35:17.624Z,16.27
2018-08-04T00:37:47.066Z,15.50
2018-08-04T00:40:16.472Z,14.43
2018-08-04T00:42:46.045Z,16.20
2018-08-04T00:45:16.145Z,14.83
2018-08-04T00:47:45.860Z,15.83
2018-08-04T00:50:15.480Z,13.70
2018-08-04T00:52:44.940Z,15.27
2018-08-04T00:55:14.479Z,15.47
2018-08-04T00:57:43.956Z,14.20
2018-08-04T01:00:13.504Z,14.73
2018-08-04T01:02:42.914Z,15.80
2018-08-04T01:05:12.410Z,15.30
2018-08-04T01:07:41.804Z,14.07
2018-08-04T01:10:11.236Z,16.93
2018-08-04T01:12:40.678Z,15.23
2018-08-04T01:15:10.193Z,16.43
2018-08-04T01:17:39.648Z,13.70
2018-08-04T01:20:09.051Z,14.50
2018-08-04T01:22:38.505Z,15.83
2018-08-04T01:25:08.463Z,16.57
2018-08-04T01:27:37.933Z,15.70
2018-08-04T01:30:07.473Z,14.97
2018-08-04T01:32:36.975Z,15.80
2018-08-04T01:35:06.452Z,15.53
2018-08-04T01:37:36.061Z,13.50
2018-08-04T01:40:06.499Z,15.60
2018-08-04T01:42:35.957Z,15.53
2018-08-04T01:45:06.086Z,16.07
2018-08-04T01:47:36.975Z,15.50
2018-08-04T01:50:06.758Z,14.03
2018-08-04T01:52:36.204Z,17.30
2018-08-04T01:55:06.327Z,16.40
2018-08-04T01:57:35.839Z,14.63
2018-08-04T02:00:05.758Z,16.33
2018-08-04T02:02:35.136Z,15.20
2018-08-04T02:05:05.457Z,15.87
2018-08-04T02:07:34.900Z,15.93
2018-08-04T02:10:05.153Z,14.27
2018-08-04T02:12:34.545Z,15.87
2018-08-04T02:15:04.202Z,16.20
2018-08-04T02:17:33.568Z,14.83
2018-08-04T02:20:03.291Z,15.77
2018-08-04T02:22:32.701Z,15.30
2018-08-04T02:25:02.092Z,14.80
2018-08-04T02:27:31.578Z,15.77
2018-08-04T02:30:01.041Z,14.30
2018-08-04T02:32:30.459Z,16.07
2018-08-04T02:34:59.803Z,15.20
2018-08-04T02:37:29.233Z,14.97
2018-08-04T02:39:58.653Z,16.10
2018-08-04T02:42:28.851Z,16.10
2018-08-04T02:44:58.266Z,14.47
2018-08-04T02:47:28.189Z,14.90
2018-08-04T02:49:57.629Z,16.47
2018-08-04T02:52:28.060Z,17.47
2018-08-04T02:54:57.470Z,16.43
2018-08-04T02:57:26.928Z,16.70
2018-08-04T02:59:56.373Z,15.33
2018-08-04T03:02:25.756Z,15.10
2018-08-04T03:04:55.192Z,16.60
2018-08-04T03:07:24.604Z,14.27
2018-08-04T03:09:53.988Z,14.80
2018-08-04T03:12:24.613Z,15.63
2018-08-04T03:14:54.468Z,15.30
2018-08-04T03:17:23.933Z,13.13
2018-08-04T03:19:53.297Z,15.83
2018-08-04T03:22:22.813Z,15.10
2018-08-04T03:24:52.291Z,13.93
2018-08-04T03:27:23.842Z,16.93
2018-08-04T03:29:53.269Z,16.07
2018-08-04T03:32:22.718Z,15.70
2018-08-04T03:34:52.502Z,17.47
2018-08-04T03:37:21.925Z,16.40
2018-08-04T03:39:51.333Z,15.60
2018-08-04T03:42:22.689Z,15.40
2018-08-04T03:44:52.256Z,16.40
2018-08-04T03:47:22.066Z,17.33
2018-08-04T03:49:51.510Z,16.50
2018-08-04T03:52:21.047Z,17.37
2018-08-04T03:54:50.558Z,17.30
2018-08-04T03:57:19.951Z,16.50
2018-08-04T03:59:49.422Z,16.23
2018-08-04T04:02:19.069Z,14.83
2018-08-04T04:04:48.628Z,14.90
2018-08-04T04:07:18.026Z,15.83
2018-08-04T04:09:47.589Z,16.13
2018-08-04T04:12:17.016Z,15.50
2018-08-04T04:14:47.213Z,14.20
2018-08-04T04:17:16.666Z,14.50
2018-08-04T04:19:46.223Z,15.90
2018-08-04T04:22:15.649Z,14.90
2018-08-04T04:24:45.054Z,16.53
2018-08-04T04:27:14.457Z,16.53
2018-08-04T04:29:43.901Z,16.10
2018-08-04T04:32:13.988Z,17.53
2018-08-04T04:34:43.674Z,17.40
2018-08-04T04:37:13.076Z,16.80
2018-08-04T04:39:42.456Z,14.90
2018-08-04T04:42:12.017Z,16.83
2018-08-04T04:44:41.408Z,16.07
2018-08-04T04:47:11.077Z,15.27
2018-08-04T04:49:40.579Z,14.37
2018-08-04T04:52:10.046Z,14.63
2018-08-04T04:54:39.904Z,15.90
2018-08-04T04:57:09.563Z,16.07
2018-08-04T04:59:39.656Z,14.10
2018-08-04T05:02:09.100Z,13.60
2018-08-04T05:04:38.737Z,14.87
2018-08-04T05:07:08.129Z,16.43
2018-08-04T05:09:37.563Z,15.90
2018-08-04T05:12:07.313Z,12.80
2018-08-04T05:14:36.693Z,14.57
2018-08-04T05:17:06.188Z,13.13
2018-08-04T05:19:36.035Z,14.00
2018-08-04T05:22:05.540Z,14.30
2018-08-04T05:24:35.086Z,13.00
2018-08-04T05:27:04.531Z,13.70
2018-08-04T05:29:33.944Z,13.70
2018-08-04T05:32:03.534Z,13.77
2018-08-04T05:34:33.118Z,15.40
2018-08-04T05:37:03.369Z,13.60
2018-08-04T05:39:32.795Z,12.37
2018-08-04T05:42:02.221Z,14.33
2018-08-04T05:44:32.174Z,13.80
2018-08-04T05:47:02.380Z,14.87
2018-08-04T05:49:31.788Z,14.33
2018-08-04T05:52:01.508Z,13.90
2018-08-04T05:54:30.935Z,13.87
2018-08-04T05:57:00.375Z,12.10
2018-08-04T05:59:29.844Z,13.83
2018-08-04T06:01:59.337Z,13.57
2018-08-04T06:04:28.732Z,13.80
2018-08-04T06:06:58.685Z,12.33
2018-08-04T06:09:28.104Z,12.80
2018-08-04T06:11:57.512Z,13.10
2018-08-04T06:14:27.006Z,12.70
2018-08-04T06:16:56.666Z,13.20
2018-08-04T06:19:26.192Z,12.43
2018-08-04T06:21:56.008Z,12.30
2018-08-04T06:24:25.742Z,13.80
2018-08-04T06:26:55.160Z,14.10
2018-08-04T06:29:24.561Z,12.93
2018-08-04T06:31:54.002Z,14.53
2018-08-04T06:34:23.632Z,15.60
2018-08-04T06:36:53.161Z,14.63
2018-08-04T06:39:22.699Z,14.27
2018-08-04T06:41:52.664Z,13.70
2018-08-04T06:44:22.338Z,15.93
2018-08-04T06:46:51.752Z,14.23
2018-08-04T06:49:21.978Z,13.30
2018-08-04T06:51:51.425Z,14.90
2018-08-04T06:54:20.879Z,15.03
2018-08-04T06:56:50.539Z,15.70
2018-08-04T06:59:20.923Z,13.50
2018-08-04T07:01:50.833Z,14.30
2018-08-04T07:04:20.873Z,15.73
2018-08-04T07:06:50.838Z,14.87
2018-08-04T07:09:20.242Z,13.70
2018-08-04T07:11:49.738Z,15.70
2018-08-04T07:14:19.245Z,13.57
2018-08-04T07:16:48.631Z,16.50
2018-08-04T07:19:18.330Z,16.87
2018-08-04T07:21:47.767Z,16.27
2018-08-04T07:24:17.438Z,13.40
2018-08-04T07:26:46.893Z,14.80
2018-08-04T07:29:16.371Z,15.80
2018-08-04T07:31:45.976Z,15.30
2018-08-04T07:34:15.444Z,15.00
2018-08-04T07:36:45.093Z,16.87
2018-08-04T07:39:14.605Z,16.27
2018-08-04T07:41:44.035Z,17.23
2018-08-04T07:44:13.504Z,16.40
2018-08-04T07:46:43.317Z,18.10
2018-08-04T07:49:12.736Z,16.83
2018-08-04T07:51:42.335Z,17.63
2018-08-04T07:54:11.751Z,16.80
2018-08-04T07:56:41.140Z,16.40
2018-08-04T07:59:10.644Z,17.50
2018-08-04T08:01:41.014Z,17.20
2018-08-04T08:04:10.544Z,15.90
2018-08-04T08:06:39.958Z,17.27
2018-08-04T08:09:09.800Z,14.80
2018-08-04T08:11:39.220Z,16.87
2018-08-04T08:14:08.815Z,17.30
2018-08-04T08:16:38.773Z,16.93
2018-08-04T08:19:08.614Z,16.70
2018-08-04T08:21:38.045Z,16.20
2018-08-04T08:24:07.603Z,16.87
2018-08-04T08:26:37.713Z,15.50
2018-08-04T08:29:07.422Z,14.60
2018-08-04T08:31:40.400Z,15.83
2018-08-04T08:34:09.954Z,15.17
2018-08-04T08:36:39.669Z,15.07
2018-08-04T08:39:09.960Z,13.33
2018-08-04T08:41:39.704Z,16.80
2018-08-04T08:44:09.477Z,16.00
2018-08-04T08:46:38.875Z,15.17
2018-08-04T08:49:08.335Z,14.83
2018-08-04T08:51:37.742Z,17.10
2018-08-04T08:54:07.302Z,14.87
2018-08-04T08:56:36.816Z,13.63
2018-08-04T08:59:07.300Z,13.80
2018-08-04T09:01:36.748Z,15.27
2018-08-04T09:04:06.740Z,14.93
2018-08-04T09:06:36.149Z,14.67
2018-08-04T09:09:08.148Z,13.50
2018-08-04T09:11:37.655Z,14.30
2018-08-04T09:14:07.696Z,14.50
2018-08-04T09:16:37.540Z,13.37
2018-08-04T09:19:06.981Z,14.10
2018-08-04T09:21:37.479Z,13.30
2018-08-04T09:24:06.990Z,12.50
2018-08-04T09:26:36.492Z,11.87
2018-08-04T09:29:08.074Z,13.50
2018-08-04T09:31:38.106Z,13.13
2018-08-04T09:34:07.533Z,13.20
2018-08-04T09:36:37.230Z,12.73
2018-08-04T09:39:09.333Z,13.13
2018-08-04T09:41:39.277Z,12.17
2018-08-04T09:44:08.749Z,13.17
2018-08-04T09:46:39.273Z,12.40
2018-08-04T09:49:08.741Z,11.60
2018-08-04T09:51:38.280Z,13.00
2018-08-04T09:54:08.062Z,12.80
2018-08-04T09:56:37.485Z,11.43
2018-08-04T09:59:06.976Z,12.73
2018-08-04T10:01:38.150Z,11.93
2018-08-04T10:04:08.123Z,10.87
2018-08-04T10:06:37.512Z,12.10
2018-08-04T10:09:08.916Z,11.43
2018-08-04T10:11:38.804Z,10.60
2018-08-04T10:14:08.208Z,10.87
2018-08-04T10:16:37.996Z,9.23
2018-08-04T10:19:07.422Z,10.40
2018-08-04T10:21:36.904Z,10.23
2018-08-04T10:24:07.573Z,9.40
2018-08-04T10:26:37.439Z,9.90
2018-08-04T10:29:07.430Z,10.63
2018-08-04T10:31:36.806Z,9.10
2018-08-04T10:34:06.507Z,10.20
2018-08-04T10:36:36.258Z,9.63
2018-08-04T10:39:08.084Z,9.97
2018-08-04T10:41:37.518Z,10.47
2018-08-04T10:44:07.376Z,9.40
2018-08-04T10:46:36.942Z,10.20
2018-08-04T10:49:06.477Z,10.27
2018-08-04T10:51:36.419Z,10.00
2018-08-04T10:54:06.486Z,9.57
2018-08-04T10:56:35.950Z,9.40
2018-08-04T10:59:05.430Z,9.53
2018-08-04T11:01:35.037Z,9.80
2018-08-04T11:04:04.610Z,9.63
2018-08-04T11:06:34.026Z,9.90
2018-08-04T11:09:04.032Z,9.77
2018-08-04T11:11:33.388Z,9.10
2018-08-04T11:14:03.148Z,8.13
2018-08-04T11:16:32.517Z,8.60
2018-08-04T11:19:01.901Z,13.10
2018-08-04T11:21:31.601Z,8.37
2018-08-04T11:24:01.042Z,9.37
2018-08-04T11:26:30.912Z,9.00
2018-08-04T11:29:00.327Z,8.73
2018-08-04T11:31:29.750Z,8.73
2018-08-04T11:33:59.477Z,9.03
2018-08-04T11:36:28.869Z,7.13
2018-08-04T11:38:58.265Z,8.50
2018-08-04T11:41:27.625Z,8.07
2018-08-04T11:43:57.116Z,7.90
2018-08-04T11:46:26.527Z,8.43
2018-08-04T11:48:55.992Z,8.23
2018-08-04T11:51:25.407Z,8.53
2018-08-04T11:53:54.833Z,8.13
2018-08-04T11:56:24.398Z,8.40
2018-08-04T11:58:53.876Z,7.80
2018-08-04T12:01:23.612Z,7.53
2018-08-04T12:03:53.254Z,7.57
2018-08-04T12:06:22.516Z,8.50
2018-08-04T12:08:51.959Z,7.10
2018-08-04T12:11:21.328Z,8.20
2018-08-04T12:13:50.868Z,7.97
2018-08-04T12:16:20.327Z,7.10
2018-08-04T12:18:49.786Z,7.57
2018-08-04T12:21:19.299Z,6.73
2018-08-04T12:23:48.720Z,6.97
2018-08-04T12:26:18.485Z,7.10
2018-08-04T12:28:47.892Z,7.53
2018-08-04T12:31:17.627Z,7.90
2018-08-04T12:33:47.037Z,8.13
2018-08-04T12:36:16.523Z,7.67
2018-08-04T12:38:46.287Z,6.97
2018-08-04T12:41:15.709Z,7.30
2018-08-04T12:43:45.164Z,7.80
2018-08-04T12:46:14.737Z,7.77
2018-08-04T12:48:44.157Z,7.30
2018-08-04T12:51:13.556Z,7.33
2018-08-04T12:53:43.213Z,6.93
2018-08-04T12:56:12.764Z,7.50
2018-08-04T12:58:42.254Z,7.07
2018-08-04T13:01:11.735Z,6.87
2018-08-04T13:03:41.948Z,6.27
2018-08-04T13:06:11.352Z,6.40
2018-08-04T13:08:40.832Z,7.63
2018-08-04T13:11:10.368Z,6.20
2018-08-04T13:13:39.981Z,7.20
2018-08-04T13:16:09.412Z,7.17
2018-08-04T13:18:38.825Z,6.90
2018-08-04T13:21:08.223Z,7.07
2018-08-04T13:23:37.708Z,7.07
2018-08-04T13:26:07.338Z,7.30
2018-08-04T13:28:36.707Z,7.27
2018-08-04T13:31:06.253Z,7.20
2018-08-04T13:33:35.713Z,6.50
2018-08-04T13:36:05.179Z,7.53
2018-08-04T13:38:35.480Z,6.83
2018-08-04T13:41:05.325Z,7.00
2018-08-04T13:43:35.066Z,7.73
2018-08-04T13:46:04.735Z,7.37
2018-08-04T13:48:34.217Z,6.80
2018-08-04T13:51:03.735Z,7.37
2018-08-04T13:53:33.267Z,7.87
2018-08-04T13:56:02.669Z,8.10
2018-08-04T13:58:32.062Z,8.20
2018-08-04T14:01:01.612Z,7.97
2018-08-04T14:03:31.179Z,7.70
2018-08-04T14:06:00.655Z,7.57
2018-08-04T14:08:30.205Z,6.70
2018-08-04T14:11:00.384Z,7.23
2018-08-04T14:13:29.825Z,7.80
2018-08-04T14:15:59.817Z,6.43
2018-08-04T14:18:29.414Z,8.47
2018-08-04T14:20:58.843Z,6.60
2018-08-04T14:23:28.392Z,7.20
2018-08-04T14:25:57.822Z,7.27
2018-08-04T14:28:27.380Z,7.47
2018-08-04T14:30:56.949Z,6.33
2018-08-04T14:33:26.362Z,7.83
2018-08-04T14:35:55.774Z,7.50
2018-08-04T14:38:25.236Z,7.43
2018-08-04T14:40:54.597Z,6.50
2018-08-04T14:43:24.015Z,7.60
2018-08-04T14:45:53.423Z,8.20
2018-08-04T14:48:22.913Z,6.20
2018-08-04T14:50:52.328Z,6.80
2018-08-04T14:53:21.762Z,6.50
2018-08-04T14:55:51.234Z,6.97
2018-08-04T14:58:20.638Z,7.63
2018-08-04T15:00:50.102Z,7.80
2018-08-04T15:03:19.477Z,6.70
2018-08-04T15:05:48.871Z,6.90
2018-08-04T15:08:18.248Z,6.93
2018-08-04T15:10:47.663Z,6.70
2018-08-04T15:13:17.052Z,7.20
2018-08-04T15:15:46.817Z,6.73
2018-08-04T15:18:16.412Z,7.77
2018-08-04T15:20:45.852Z,7.40
2018-08-04T15:23:15.290Z,7.07
2018-08-04T15:25:44.776Z,6.37
2018-08-04T15:28:14.176Z,7.00
2018-08-04T15:30:43.578Z,6.93
2018-08-04T15:33:13.102Z,6.40
2018-08-04T15:35:42.660Z,7.40
2018-08-04T15:38:12.089Z,7.20
2018-08-04T15:40:41.492Z,7.57
2018-08-04T15:43:10.918Z,6.40
2018-08-04T15:45:40.324Z,6.83
2018-08-04T15:48:09.752Z,7.67
2018-08-04T15:50:39.298Z,6.80
2018-08-04T15:53:09.280Z,7.13
2018-08-04T15:55:38.645Z,6.57
2018-08-04T15:58:08.050Z,6.93
2018-08-04T16:00:37.444Z,7.10
2018-08-04T16:03:07.312Z,7.23
2018-08-04T16:05:36.710Z,6.80
2018-08-04T16:08:06.080Z,8.07
2018-08-04T16:10:35.469Z,7.43
2018-08-04T16:13:04.850Z,7.23
2018-08-04T16:15:34.223Z,7.07
2018-08-04T16:18:03.621Z,6.00
2018-08-04T16:20:33.026Z,6.70
2018-08-04T16:23:02.422Z,6.93
2018-08-04T16:25:32.236Z,6.17
2018-08-04T16:28:01.644Z,6.80
2018-08-04T16:30:31.061Z,6.93
2018-08-04T16:33:00.457Z,7.40
2018-08-04T16:35:29.887Z,6.27
2018-08-04T16:37:59.345Z,6.80
2018-08-04T16:40:28.720Z,7.60
2018-08-04T16:42:58.244Z,8.43
2018-08-04T16:45:27.632Z,6.73
2018-08-04T16:47:57.018Z,6.17
2018-08-04T16:50:26.457Z,7.10
2018-08-04T16:52:55.852Z,7.53
2018-08-04T16:55:25.881Z,7.70
2018-08-04T16:57:55.578Z,6.70
2018-08-04T17:00:25.015Z,6.47
2018-08-04T17:02:54.384Z,6.80
2018-08-04T17:05:23.758Z,7.43
2018-08-04T17:07:53.128Z,7.47
2018-08-04T17:10:22.584Z,6.70
2018-08-04T17:12:52.012Z,7.80
2018-08-04T17:15:21.457Z,8.30
2018-08-04T17:17:50.965Z,7.30
2018-08-04T17:20:20.843Z,6.93
2018-08-04T17:22:50.487Z,7.50
2018-08-04T17:25:20.445Z,7.50
2018-08-04T17:27:49.883Z,8.40
2018-08-04T17:30:20.267Z,7.60
2018-08-04T17:32:49.683Z,5.43
2018-08-04T17:35:19.099Z,7.60
2018-08-04T17:37:48.502Z,6.23
2018-08-04T17:40:17.879Z,6.30
2018-08-04T17:42:47.658Z,7.30
2018-08-04T17:45:17.056Z,6.73
2018-08-04T17:47:46.495Z,6.30
2018-08-04T17:50:15.889Z,8.53
2018-08-04T17:52:45.316Z,7.00
2018-08-04T17:55:15.598Z,6.90
2018-08-04T17:57:44.996Z,7.90
2018-08-04T18:00:14.584Z,7.90
2018-08-04T18:02:44.138Z,7.47
2018-08-04T18:05:13.528Z,7.30
2018-08-04T18:07:42.920Z,7.73
2018-08-04T18:10:12.341Z,8.20
2018-08-04T18:12:42.085Z,9.87
2018-08-04T18:15:11.487Z,7.90
2018-08-04T18:17:40.842Z,8.90
2018-08-04T18:20:10.278Z,9.30
2018-08-04T18:22:39.654Z,7.57
2018-08-04T18:25:09.234Z,7.77
2018-08-04T18:27:38.870Z,7.27
2018-08-04T18:30:08.320Z,6.60
2018-08-04T18:32:37.846Z,7.70
2018-08-04T18:35:07.352Z,6.83
2018-08-04T18:37:36.916Z,7.20
2018-08-04T18:40:06.515Z,7.70
2018-08-04T18:42:36.313Z,8.10
2018-08-04T18:45:07.127Z,8.23
2018-08-04T18:47:36.520Z,7.63
2018-08-04T18:50:06.402Z,6.83
2018-08-04T18:52:35.913Z,6.87
2018-08-04T18:55:05.483Z,6.83
2018-08-04T18:57:34.915Z,7.83
2018-08-04T19:00:05.171Z,7.60
2018-08-04T19:02:35.140Z,7.33
2018-08-04T19:05:05.774Z,7.10
2018-08-04T19:07:35.195Z,6.80
2018-08-04T19:10:05.085Z,7.80
2018-08-04T19:12:34.464Z,7.37
2018-08-04T19:15:04.324Z,7.03
2018-08-04T19:17:33.708Z,7.90
2018-08-04T19:20:03.236Z,7.30
2018-08-04T19:22:32.653Z,28.30
2018-08-04T19:25:02.148Z,8.30
2018-08-04T19:27:31.690Z,7.17
2018-08-04T19:30:01.102Z,7.70
2018-08-04T19:32:30.519Z,7.43
2018-08-04T19:34:59.936Z,6.70
2018-08-04T19:37:29.380Z,6.97
2018-08-04T19:39:58.881Z,6.93
2018-08-04T19:42:28.255Z,7.00
2018-08-04T19:44:59.256Z,8.07
2018-08-04T19:47:28.896Z,7.20
2018-08-04T19:49:58.352Z,7.70
2018-08-04T19:52:27.897Z,9.20
2018-08-04T19:54:57.488Z,7.60
2018-08-04T19:57:26.963Z,8.00
2018-08-04T19:59:56.357Z,7.73
2018-08-04T20:02:25.882Z,9.77
2018-08-04T20:04:55.261Z,9.27
2018-08-04T20:07:24.672Z,8.47
2018-08-04T20:09:54.040Z,9.00
2018-08-04T20:12:23.442Z,8.43
2018-08-04T20:14:52.938Z,8.20
2018-08-04T20:17:22.593Z,9.10
2018-08-04T20:19:51.977Z,7.43
2018-08-04T20:22:21.386Z,8.50
2018-08-04T20:24:50.786Z,8.07
2018-08-04T20:27:20.213Z,8.70
2018-08-04T20:29:50.046Z,7.83
2018-08-04T20:32:19.793Z,7.73
2018-08-04T20:34:49.150Z,8.40
2018-08-04T20:37:18.537Z,8.00
2018-08-04T20:39:48.825Z,7.17
2018-08-04T20:42:18.331Z,7.97
2018-08-04T20:44:47.807Z,8.20
2018-08-04T20:47:17.216Z,7.90
2018-08-04T20:49:46.945Z,7.27
2018-08-04T20:52:16.336Z,10.83
2018-08-04T20:54:45.902Z,8.60
2018-08-04T20:57:15.411Z,7.80
2018-08-04T20:59:44.984Z,8.63
2018-08-04T21:02:14.381Z,8.80
2018-08-04T21:04:43.753Z,7.83
2018-08-04T21:07:13.333Z,9.73
2018-08-04T21:09:42.746Z,9.20
2018-08-04T21:12:12.167Z,9.23
2018-08-04T21:14:41.671Z,7.90
2018-08-04T21:17:11.128Z,8.03
2018-08-04T21:19:40.561Z,8.60
2018-08-04T21:22:09.941Z,8.57
2018-08-04T21:24:39.312Z,8.90
2018-08-04T21:27:08.787Z,8.90
2018-08-04T21:29:38.177Z,8.27
2018-08-04T21:32:07.608Z,8.40
2018-08-04T21:34:37.391Z,8.97
2018-08-04T21:37:06.897Z,9.03
2018-08-04T21:39:36.363Z,11.40
2018-08-04T21:42:05.793Z,9.80
2018-08-04T21:44:35.280Z,11.03
2018-08-04T21:47:04.920Z,9.87
2018-08-04T21:49:34.368Z,10.17
2018-08-04T21:52:04.293Z,10.03
2018-08-04T21:54:35.674Z,10.43
2018-08-04T21:57:05.073Z,10.07
2018-08-04T21:59:35.048Z,10.83
2018-08-04T22:02:04.597Z,10.60
2018-08-04T22:04:34.503Z,11.03
2018-08-04T22:07:41.235Z,11.57
2018-08-04T22:10:11.495Z,10.47
2018-08-04T22:12:41.981Z,11.13
2018-08-04T22:15:13.080Z,10.50
2018-08-04T22:17:43.434Z,9.17
2018-08-04T22:20:14.096Z,9.67
2018-08-04T22:22:44.035Z,11.13
2018-08-04T22:25:16.934Z,10.07
2018-08-04T22:27:46.984Z,10.60
2018-08-04T22:30:18.536Z,10.23
2018-08-04T22:32:48.457Z,9.30
2018-08-04T22:35:17.972Z,9.63
2018-08-04T22:37:47.395Z,9.30
2018-08-04T22:40:17.866Z,9.90
2018-08-04T22:42:47.287Z,9.17
2018-08-04T22:46:14.001Z,9.60
2018-08-04T22:48:45.300Z,10.10
2018-08-04T22:51:19.073Z,9.27
2018-08-04T22:53:48.687Z,9.60
2018-08-04T22:56:18.197Z,8.80
2018-08-04T22:58:47.589Z,8.93
2018-08-04T23:01:17.384Z,9.43
2018-08-04T23:06:16.193Z,10.00
2018-08-04T23:08:45.597Z,10.73
2018-08-04T23:11:15.028Z,9.90
2018-08-04T23:13:44.564Z,9.63
2018-08-04T23:16:13.993Z,9.30
2018-08-04T23:18:43.392Z,10.53
2018-08-04T23:21:13.200Z,9.83
2018-08-04T23:23:42.575Z,9.33
2018-08-04T23:26:12.063Z,8.80
2018-08-04T23:28:41.459Z,9.17
2018-08-04T23:31:10.898Z,8.27
2018-08-04T23:33:40.291Z,9.40
2018-08-04T23:36:09.729Z,11.27
2018-08-04T23:38:39.203Z,9.30
2018-08-04T23:41:09.274Z,9.67
2018-08-04T23:43:38.639Z,8.97
2018-08-04T23:46:07.988Z,10.30
2018-08-04T23:48:37.446Z,9.63
2018-08-04T23:51:07.109Z,10.50
2018-08-04T23:53:36.552Z,10.13
2018-08-04T23:56:05.952Z,9.70
2018-08-04T23:58:35.428Z,9.53
